Portada
METAR-TAF:

METAR-TAF

Aeropuertos :

Tongatapu, Tonga

Aeropuerto Internacional Fua'amotu

latitud: 21-14S, longitud: 175-09W, altitud: 38 m

Observación

El informe se hizo hace 16 minutos, a las 15:00 UTC
Viento calma
Temperatura 20°C
Humedad 94%
Presión 1009 hPa
Visibilidad 10 km o más
Escasas nubes a una altura de 1500 ft

METAR: NFTF 111500Z 00000KT 9999 FEW015 20/19 Q1009

Hora: 05:16 (15:16 UTC)

Pronóstico

El informe se hizo hace 4 horas y 16 minutos, a las 11:00 UTC
Pronóstico válido del 11 a las 12 UTC al 12 a las 12 UTC
Viento 8 kt del este-sureste
Visibilidad 10 km o más
Nubes dispersas a una altura de 1700 ft

TAF: NFTF 111100Z 1112/1212 12008KT 9999 SCT017

Observaciones y pronósticos meteorológicos de más de 4000 aeropuertos (mensajes METAR y TAF).

Los puntos amarillos y rojos representan las estaciones disponibles.

Ponga el ratón en el punto deseado para ver el nombre de la estación.

Haga clic para ver las observaciones y los pronósticos meteorológicos.

Para cambiar el mapa : haga clic en los botones verdes con una cruz de color negro para hacer un zoom, en el botón verde con un guión para alejar o en las flechas verdes para mapas adyacentes.


METAR-TAF: